Time;durP1;ratioP1;P1;durP2;ratioP2;P2;SDS_P1;SDS_P2;PMS_P1;PMS_P2;Temp;Humidity;BMP_temperature;BMP_pressure;BME280_temperature;BME280_humidity;BME280_pressure;Samples;Min_cycle;Max_cycle;Signal;HPM_P1;HPM_P2
2022/01/01 00:00:11;;;;;;;69.50;43.50;;;10.30;99.90;;;;;;5011461;28;20499;-53
2022/01/01 00:02:36;;;;;;;51.63;32.72;;;10.30;99.90;;;;;;5012785;28;20774;-53
2022/01/01 00:05:03;;;;;;;41.33;23.83;;;10.30;99.90;;;;;;5012214;28;20369;-54
2022/01/01 00:07:29;;;;;;;35.90;21.52;;;10.30;99.90;;;;;;5012854;28;20924;-53
2022/01/01 00:09:55;;;;;;;25.83;15.32;;;10.40;99.90;;;;;;5011966;28;20504;-53
2022/01/01 00:12:20;;;;;;;25.70;13.87;;;10.50;99.90;;;;;;5012538;28;20391;-53
2022/01/01 00:14:46;;;;;;;21.35;11.30;;;10.60;99.90;;;;;;5012198;28;20782;-53
2022/01/01 00:17:11;;;;;;;19.50;12.10;;;10.60;99.90;;;;;;5012500;28;20951;-53
2022/01/01 00:19:38;;;;;;;22.07;12.67;;;10.50;99.90;;;;;;5012150;28;20515;-53
2022/01/01 00:22:06;;;;;;;23.52;13.48;;;10.50;99.90;;;;;;5011919;28;20389;-53
2022/01/01 00:24:34;;;;;;;22.77;12.98;;;10.40;99.90;;;;;;5012644;28;20497;-53
2022/01/01 00:26:59;;;;;;;20.20;12.45;;;10.40;99.90;;;;;;5010509;28;20451;-53
2022/01/01 00:29:25;;;;;;;22.48;12.80;;;10.50;99.90;;;;;;5012301;28;20401;-53
2022/01/01 00:31:51;;;;;;;21.70;12.20;;;10.50;99.90;;;;;;5011857;28;20408;-53
2022/01/01 00:34:16;;;;;;;18.67;11.80;;;10.50;99.90;;;;;;5012212;28;20770;-53
2022/01/01 00:36:42;;;;;;;19.97;10.97;;;10.60;99.90;;;;;;5012391;28;20382;-53
2022/01/01 00:39:08;;;;;;;20.05;11.07;;;10.70;99.90;;;;;;5011118;28;20788;-53
2022/01/01 00:41:33;;;;;;;20.80;12.50;;;10.80;99.90;;;;;;5012186;28;20937;-53
2022/01/01 00:43:59;;;;;;;19.80;11.50;;;10.90;99.90;;;;;;5011222;28;20897;-53
2022/01/01 00:46:25;;;;;;;21.65;12.20;;;10.90;99.90;;;;;;5011750;28;20453;-53
2022/01/01 00:48:53;;;;;;;19.65;11.80;;;11.00;99.90;;;;;;5011265;28;20385;-53
2022/01/01 00:51:20;;;;;;;20.83;12.10;;;11.20;99.90;;;;;;5011914;28;20385;-53
2022/01/01 00:53:46;;;;;;;17.10;10.43;;;11.30;99.90;;;;;;5012052;28;20409;-53
2022/01/01 00:56:12;;;;;;;17.25;11.15;;;11.40;99.90;;;;;;5011399;28;20511;-53
2022/01/01 00:58:37;;;;;;;17.60;11.13;;;11.40;99.90;;;;;;5011718;28;20883;-53
2022/01/01 01:01:03;;;;;;;21.80;11.18;;;11.50;99.90;;;;;;5010788;28;20439;-53
2022/01/01 01:03:28;;;;;;;19.57;12.33;;;11.50;99.90;;;;;;5011883;28;20397;-53
2022/01/01 01:05:54;;;;;;;17.75;11.25;;;11.60;99.90;;;;;;5011033;28;20392;-51
2022/01/01 01:08:20;;;;;;;21.87;12.73;;;11.60;99.90;;;;;;5011568;28;20396;-51
2022/01/01 01:10:47;;;;;;;20.37;12.10;;;11.60;99.90;;;;;;5011470;28;20389;-53
2022/01/01 01:13:15;;;;;;;21.40;12.68;;;11.60;99.90;;;;;;5011583;28;20373;-53
2022/01/01 01:15:42;;;;;;;19.40;12.10;;;11.60;99.90;;;;;;5011253;28;20903;-53
2022/01/01 01:18:08;;;;;;;20.40;11.90;;;11.60;99.90;;;;;;5010498;28;20947;-53
2022/01/01 01:20:34;;;;;;;20.70;11.45;;;11.60;99.90;;;;;;5011610;28;20409;-51
2022/01/01 01:23:00;;;;;;;19.80;11.60;;;11.60;99.90;;;;;;5010532;28;20854;-51
2022/01/01 01:25:32;;;;;;;21.05;12.00;;;11.60;99.90;;;;;;5010011;28;20389;-51
2022/01/01 01:28:06;;;;;;;20.13;11.80;;;11.50;99.90;;;;;;5010526;28;20508;-52
2022/01/01 01:30:32;;;;;;;17.10;11.68;;;11.60;99.90;;;;;;5011225;28;20858;-51
2022/01/01 01:32:57;;;;;;;20.57;11.17;;;11.60;99.90;;;;;;5010324;28;20476;-51
2022/01/01 01:35:23;;;;;;;18.35;11.80;;;11.50;99.90;;;;;;5011359;28;20851;-51
2022/01/01 01:37:49;;;;;;;23.40;12.43;;;11.40;99.90;;;;;;5010533;28;20393;-51
2022/01/01 01:40:15;;;;;;;20.67;12.18;;;11.40;99.90;;;;;;5010960;28;20751;-51
2022/01/01 01:42:43;;;;;;;20.40;12.50;;;11.30;99.90;;;;;;5010838;28;20393;-51
2022/01/01 01:45:15;;;;;;;19.50;11.80;;;11.30;99.90;;;;;;5010237;28;20409;-53
2022/01/01 01:47:41;;;;;;;20.98;12.18;;;11.10;99.90;;;;;;5011289;28;20468;-53
2022/01/01 01:50:09;;;;;;;22.00;12.57;;;11.10;99.90;;;;;;5010173;28;20484;-53
2022/01/01 01:52:37;;;;;;;20.40;12.00;;;11.20;99.90;;;;;;5010930;28;20385;-53
2022/01/01 01:55:07;;;;;;;22.00;13.30;;;11.20;99.90;;;;;;5010074;28;20407;-54
2022/01/01 01:57:40;;;;;;;22.15;12.95;;;11.20;99.90;;;;;;5011062;28;20389;-53
2022/01/01 02:00:19;;;;;;;20.45;12.20;;;11.30;99.90;;;;;;5009227;28;20447;-53
2022/01/01 02:02:45;;;;;;;21.55;12.90;;;11.30;99.90;;;;;;5010717;28;20397;-53
2022/01/01 02:05:10;;;;;;;27.10;14.43;;;11.30;99.90;;;;;;5009980;28;20458;-54
2022/01/01 02:07:37;;;;;;;25.57;15.10;;;11.30;99.90;;;;;;5010433;28;20416;-54
2022/01/01 02:10:03;;;;;;;26.23;14.50;;;11.30;99.90;;;;;;5009704;28;20440;-54
2022/01/01 02:12:29;;;;;;;24.20;14.73;;;11.30;99.90;;;;;;5010134;28;20408;-54
2022/01/01 02:17:24;;;;;;;24.73;13.88;;;11.30;99.90;;;;;;5010503;28;20397;-53
2022/01/01 02:20:00;;;;;;;26.15;14.70;;;11.30;99.90;;;;;;5009444;28;20777;-53
2022/01/01 02:22:36;;;;;;;22.90;14.30;;;11.30;99.90;;;;;;5010530;28;20397;-53
2022/01/01 02:25:02;;;;;;;27.48;14.50;;;11.70;99.90;;;;;;5009619;28;20413;-53
2022/01/01 02:27:27;;;;;;;23.30;14.18;;;11.40;99.90;;;;;;5010140;28;20420;-53
2022/01/01 02:29:53;;;;;;;23.20;13.57;;;11.40;99.90;;;;;;5009309;28;20941;-53
2022/01/01 02:32:19;;;;;;;25.73;14.10;;;11.40;99.90;;;;;;5010482;28;20373;-53
2022/01/01 02:34:45;;;;;;;21.65;13.60;;;11.50;99.90;;;;;;5010055;28;20444;-53
2022/01/01 02:37:10;;;;;;;21.95;13.07;;;11.50;99.90;;;;;;5009410;28;20381;-53
2022/01/01 02:39:36;;;;;;;23.00;13.30;;;11.60;99.90;;;;;;5010220;28;20514;-53
2022/01/01 02:42:06;;;;;;;23.98;13.05;;;11.60;99.90;;;;;;5009447;28;20395;-53
2022/01/01 02:44:31;;;;;;;24.02;14.25;;;11.70;99.90;;;;;;5009694;28;20871;-51
2022/01/01 02:46:57;;;;;;;23.53;13.70;;;11.70;99.90;;;;;;5009140;28;20464;-51
2022/01/01 02:49:23;;;;;;;26.63;13.15;;;11.60;99.90;;;;;;5009308;28;20471;-51
2022/01/01 02:51:49;;;;;;;21.85;13.80;;;11.50;99.90;;;;;;5009281;28;20385;-51
2022/01/01 02:54:15;;;;;;;22.05;13.30;;;11.50;99.90;;;;;;5009595;28;20384;-51
2022/01/01 02:56:41;;;;;;;26.40;13.53;;;11.60;99.90;;;;;;5009714;28;20388;-51
2022/01/01 02:59:06;;;;;;;21.30;12.77;;;11.60;99.90;;;;;;5007407;28;20496;-51
2022/01/01 03:01:32;;;;;;;23.65;13.30;;;11.60;99.90;;;;;;5009914;28;20907;-51
2022/01/01 03:03:58;;;;;;;21.47;12.97;;;11.50;99.90;;;;;;5008762;28;20385;-51
2022/01/01 03:06:23;;;;;;;23.42;13.32;;;11.60;99.90;;;;;;5009846;28;20419;-51
2022/01/01 03:08:52;;;;;;;23.00;13.70;;;11.50;99.90;;;;;;5009177;28;20397;-51
2022/01/01 03:11:18;;;;;;;22.52;13.38;;;11.60;99.90;;;;;;5009386;28;20392;-51
2022/01/01 03:13:44;;;;;;;21.37;13.10;;;11.50;99.90;;;;;;5009811;28;20391;-51
2022/01/01 03:16:10;;;;;;;25.13;13.95;;;11.50;99.90;;;;;;5009017;28;20412;-51
2022/01/01 03:18:39;;;;;;;20.25;12.70;;;11.50;99.90;;;;;;5009807;28;20389;-51
2022/01/01 03:21:05;;;;;;;24.08;13.65;;;11.50;99.90;;;;;;5008767;28;20404;-51
2022/01/01 03:23:31;;;;;;;20.98;12.57;;;11.50;99.90;;;;;;5009818;28;20377;-51
2022/01/01 03:25:57;;;;;;;20.77;12.38;;;11.60;99.90;;;;;;5008716;28;20395;-51
2022/01/01 03:28:22;;;;;;;22.60;12.07;;;11.60;99.90;;;;;;5009287;28;20874;-51
2022/01/01 03:30:48;;;;;;;20.85;13.10;;;11.50;99.90;;;;;;5009604;28;20432;-51
2022/01/01 03:33:14;;;;;;;22.58;13.25;;;11.60;99.90;;;;;;5008998;28;20441;-51
2022/01/01 03:35:39;;;;;;;21.97;12.50;;;11.60;99.90;;;;;;5009499;28;20393;-52
2022/01/01 03:38:05;;;;;;;21.35;13.10;;;11.50;99.90;;;;;;5008969;28;20820;-51
2022/01/01 03:40:31;;;;;;;23.30;13.70;;;11.40;99.90;;;;;;5009279;28;20539;-51
2022/01/01 03:42:56;;;;;;;22.88;13.23;;;11.30;99.90;;;;;;5007251;28;20412;-51
2022/01/01 03:45:22;;;;;;;24.30;13.83;;;11.20;99.90;;;;;;5009450;28;20388;-53
2022/01/01 03:47:47;;;;;;;21.30;13.50;;;11.00;99.90;;;;;;5009573;28;20423;-54
2022/01/01 03:50:13;;;;;;;21.52;13.15;;;10.90;99.90;;;;;;5008458;28;20458;-54
2022/01/01 03:52:43;;;;;;;19.20;11.87;;;10.80;99.90;;;;;;5009327;28;20848;-54
2022/01/01 03:55:10;;;;;;;22.63;13.02;;;10.80;99.90;;;;;;5009036;28;20387;-54
2022/01/01 03:57:36;;;;;;;21.30;13.63;;;10.80;99.90;;;;;;5008701;28;20444;-54
2022/01/01 04:00:05;;;;;;;21.00;13.13;;;10.90;99.90;;;;;;5008714;28;20432;-54
2022/01/01 04:02:32;;;;;;;20.63;13.33;;;11.00;99.90;;;;;;5009304;28;20444;-54
2022/01/01 04:04:58;;;;;;;24.10;14.70;;;11.10;99.90;;;;;;5008932;28;20463;-54
2022/01/01 04:07:24;;;;;;;25.40;13.38;;;11.10;99.90;;;;;;5008978;28;20854;-54
2022/01/01 04:09:49;;;;;;;21.30;13.80;;;11.10;99.90;;;;;;5008248;28;20499;-54
2022/01/01 04:12:15;;;;;;;24.45;14.75;;;11.10;99.90;;;;;;5009341;28;20385;-54
2022/01/01 04:14:42;;;;;;;25.08;14.77;;;11.10;99.90;;;;;;5009078;28;20397;-54
2022/01/01 04:17:09;;;;;;;27.60;15.63;;;11.00;99.90;;;;;;5008514;28;20393;-51
2022/01/01 04:19:43;;;;;;;29.08;16.25;;;11.10;99.90;;;;;;5009621;28;20519;-51
2022/01/01 04:22:11;;;;;;;24.42;16.42;;;11.00;99.90;;;;;;5009781;28;20389;-53
2022/01/01 04:24:38;;;;;;;27.92;16.58;;;10.90;99.90;;;;;;5013224;28;20408;-54
2022/01/01 04:27:05;;;;;;;26.20;16.50;;;10.80;99.90;;;;;;5012268;28;20854;-54
2022/01/01 04:29:31;;;;;;;30.43;17.50;;;10.90;99.90;;;;;;5012619;28;20867;-54
2022/01/01 04:31:58;;;;;;;30.80;19.02;;;10.90;99.90;;;;;;5011826;28;20439;-54
2022/01/01 04:34:24;;;;;;;33.50;19.65;;;10.90;99.90;;;;;;5012593;28;20408;-54
2022/01/01 04:37:06;;;;;;;32.47;20.13;;;10.90;99.90;;;;;;5012455;28;20435;-54
2022/01/01 04:39:32;;;;;;;35.88;21.67;;;10.80;99.90;;;;;;5012032;28;20809;-54
2022/01/01 04:41:57;;;;;;;36.43;21.50;;;10.60;99.90;;;;;;5011522;28;20385;-54
2022/01/01 04:44:23;;;;;;;33.30;21.58;;;10.70;99.90;;;;;;5012321;28;20389;-54
2022/01/01 04:46:49;;;;;;;32.20;19.70;;;10.80;99.90;;;;;;5012203;28;20396;-54
2022/01/01 04:49:15;;;;;;;35.80;19.20;;;10.60;99.90;;;;;;5011348;28;20956;-54
2022/01/01 04:51:40;;;;;;;37.37;20.03;;;10.60;99.90;;;;;;5012197;28;20412;-54
2022/01/01 04:54:13;;;;;;;33.33;19.52;;;10.30;99.90;;;;;;5011714;28;20587;-54
2022/01/01 04:56:43;;;;;;;36.20;20.60;;;10.20;99.90;;;;;;5012137;28;20384;-54
2022/01/01 04:59:10;;;;;;;36.42;20.45;;;10.10;99.90;;;;;;5011069;28;20621;-54
2022/01/01 05:01:35;;;;;;;37.08;20.70;;;10.00;99.90;;;;;;5011772;28;20389;-54
2022/01/01 05:04:01;;;;;;;39.92;23.42;;;10.00;99.90;;;;;;5011513;28;20427;-54
2022/01/01 05:06:26;;;;;;;41.57;23.70;;;9.80;99.90;;;;;;5011683;28;20388;-54
2022/01/01 05:08:52;;;;;;;39.55;21.17;;;10.00;99.90;;;;;;5011553;28;20377;-54
2022/01/01 05:11:18;;;;;;;37.03;21.48;;;10.00;99.90;;;;;;5011171;28;20918;-54
2022/01/01 05:13:43;;;;;;;38.63;22.57;;;10.00;99.90;;;;;;5011537;28;20720;-54
2022/01/01 05:16:15;;;;;;;40.08;21.40;;;10.00;99.90;;;;;;5010924;28;20909;-53
2022/01/01 05:18:40;;;;;;;35.60;20.98;;;9.90;99.90;;;;;;5011735;28;20389;-53
2022/01/01 05:21:06;;;;;;;35.97;21.03;;;9.80;99.90;;;;;;5010623;28;20436;-54
2022/01/01 05:23:32;;;;;;;34.65;20.13;;;9.60;99.90;;;;;;5011136;28;20751;-54
2022/01/01 05:25:58;;;;;;;40.97;22.02;;;9.40;99.90;;;;;;5010671;28;20385;-54
2022/01/01 05:28:24;;;;;;;39.72;22.58;;;9.10;99.90;;;;;;5011442;28;20381;-54
2022/01/01 05:30:50;;;;;;;40.43;21.07;;;9.00;99.90;;;;;;5010708;28;20428;-53
2022/01/01 05:33:16;;;;;;;36.10;19.97;;;8.80;99.90;;;;;;5009618;28;20743;-54
2022/01/01 05:35:42;;;;;;;36.88;20.23;;;8.70;99.90;;;;;;5010993;28;20381;-54
2022/01/01 05:38:08;;;;;;;35.38;19.33;;;8.60;99.90;;;;;;5010366;28;20716;-53
2022/01/01 05:40:33;;;;;;;33.33;17.80;;;8.70;99.90;;;;;;5010805;28;20424;-54
2022/01/01 05:42:59;;;;;;;32.10;18.23;;;8.70;99.90;;;;;;5010451;28;20389;-54
2022/01/01 05:45:25;;;;;;;32.40;18.07;;;8.80;99.90;;;;;;5011096;28;20389;-54
2022/01/01 05:47:50;;;;;;;34.13;18.63;;;8.90;99.90;;;;;;5011095;28;20866;-53
2022/01/01 05:50:17;;;;;;;34.30;18.97;;;9.00;99.90;;;;;;5010256;28;20415;-54
2022/01/01 05:52:43;;;;;;;31.48;17.27;;;9.00;99.90;;;;;;5010811;28;20395;-54
2022/01/01 05:55:09;;;;;;;32.00;16.55;;;9.00;99.90;;;;;;5010300;28;20877;-54
2022/01/01 05:57:35;;;;;;;27.88;17.15;;;9.00;99.90;;;;;;5010576;28;20388;-53
2022/01/01 06:00:01;;;;;;;33.97;17.97;;;8.90;99.90;;;;;;5009516;28;20444;-54
2022/01/01 06:02:26;;;;;;;32.50;17.17;;;8.80;99.90;;;;;;5010711;28;20401;-53
2022/01/01 06:04:52;;;;;;;29.85;15.68;;;8.80;99.90;;;;;;5010544;28;20389;-53
2022/01/01 06:07:17;;;;;;;30.23;17.00;;;8.70;99.90;;;;;;5009946;28;20392;-55
2022/01/01 06:09:45;;;;;;;29.17;16.55;;;8.80;99.90;;;;;;5010936;28;20419;-55
2022/01/01 06:12:11;;;;;;;25.50;14.32;;;8.70;99.90;;;;;;5009987;28;20451;-55
2022/01/01 06:14:37;;;;;;;18.95;10.43;;;8.60;99.90;;;;;;5010326;28;20377;-55
2022/01/01 06:17:02;;;;;;;18.77;10.27;;;8.60;99.90;;;;;;5010072;28;20455;-55
2022/01/01 06:19:28;;;;;;;22.20;10.60;;;8.60;99.90;;;;;;5009266;28;20431;-55
2022/01/01 06:21:54;;;;;;;18.02;10.65;;;8.60;99.90;;;;;;5009845;28;20424;-55
2022/01/01 06:24:19;;;;;;;17.00;7.93;;;8.70;99.90;;;;;;5009763;28;20858;-54
2022/01/01 06:26:45;;;;;;;15.17;8.60;;;8.80;99.90;;;;;;5010265;28;20389;-55
2022/01/01 06:29:10;;;;;;;15.25;8.50;;;8.80;99.90;;;;;;5009699;28;20392;-54
2022/01/01 06:31:36;;;;;;;15.10;7.93;;;8.90;99.90;;;;;;5009976;28;20835;-55
2022/01/01 06:34:02;;;;;;;15.00;7.88;;;9.10;99.90;;;;;;5009590;28;20412;-55
2022/01/01 06:36:28;;;;;;;13.98;7.40;;;9.10;99.90;;;;;;5010906;28;20381;-54
2022/01/01 06:38:53;;;;;;;15.27;7.60;;;9.20;99.90;;;;;;5010059;28;20414;-54
2022/01/01 06:41:20;;;;;;;15.30;7.95;;;9.20;99.90;;;;;;5008145;28;20430;-54
2022/01/01 06:43:46;;;;;;;15.20;7.60;;;9.20;99.90;;;;;;5010279;28;20385;-53
2022/01/01 06:46:11;;;;;;;15.17;7.50;;;9.30;99.90;;;;;;5009124;28;20891;-53
2022/01/01 06:48:37;;;;;;;14.60;7.60;;;9.30;99.90;;;;;;5010400;28;20381;-54
2022/01/01 06:51:03;;;;;;;12.50;6.57;;;9.30;99.90;;;;;;5009017;28;20385;-53
2022/01/01 06:53:29;;;;;;;13.35;6.95;;;9.40;99.90;;;;;;5010081;28;20419;-53
2022/01/01 06:55:54;;;;;;;11.13;6.43;;;9.50;99.90;;;;;;5009627;28;20476;-53
2022/01/01 06:58:20;;;;;;;15.15;7.80;;;9.50;99.90;;;;;;5009648;28;20758;-54
2022/01/01 07:00:45;;;;;;;13.37;6.50;;;9.60;99.90;;;;;;5009638;28;20421;-54
2022/01/01 07:03:11;;;;;;;12.77;6.60;;;9.70;99.90;;;;;;5008494;28;20949;-53
2022/01/01 07:05:37;;;;;;;13.57;6.90;;;9.70;99.90;;;;;;5017050;28;20395;-53
2022/01/01 07:08:02;;;;;;;11.33;5.87;;;9.80;99.90;;;;;;5020589;28;20383;-54
2022/01/01 07:10:28;;;;;;;11.73;6.40;;;9.90;99.90;;;;;;5016054;28;20483;-54
2022/01/01 07:12:54;;;;;;;11.65;6.20;;;9.90;99.90;;;;;;5009868;28;20397;-54
2022/01/01 07:15:19;;;;;;;11.18;5.70;;;9.60;99.90;;;;;;5026744;28;20491;-54
2022/01/01 07:17:45;;;;;;;12.43;6.13;;;9.80;99.90;;;;;;5029288;28;20389;-53
2022/01/01 07:20:11;;;;;;;11.63;5.85;;;9.70;99.90;;;;;;5028608;28;20411;-54
2022/01/01 07:22:45;;;;;;;11.50;5.70;;;9.80;99.90;;;;;;5021161;28;20408;-54
2022/01/01 07:25:12;;;;;;;10.10;5.53;;;9.70;99.90;;;;;;5007780;28;20432;-54
2022/01/01 07:27:38;;;;;;;12.18;5.68;;;9.80;99.90;;;;;;5010057;28;20389;-54
2022/01/01 07:30:05;;;;;;;10.48;6.20;;;9.80;99.90;;;;;;5008738;28;20396;-54
2022/01/01 07:32:31;;;;;;;11.35;6.20;;;9.80;99.90;;;;;;5009526;28;20406;-54
2022/01/01 07:34:57;;;;;;;12.40;6.57;;;9.90;99.90;;;;;;5007779;28;20878;-54
2022/01/01 07:37:22;;;;;;;10.60;5.40;;;9.80;99.90;;;;;;5009366;28;20403;-53
2022/01/01 07:39:48;;;;;;;13.60;6.47;;;9.70;99.90;;;;;;5017827;28;20752;-54
2022/01/01 07:42:14;;;;;;;12.48;7.13;;;9.70;99.90;;;;;;5028349;28;21140;-53
2022/01/01 07:44:43;;;;;;;13.30;6.68;;;9.70;99.90;;;;;;5029233;28;20925;-53
2022/01/01 07:47:08;;;;;;;14.27;7.20;;;9.70;99.90;;;;;;5028296;28;20940;-53
2022/01/01 07:49:35;;;;;;;14.10;7.60;;;9.60;99.90;;;;;;5029245;28;20391;-54
2022/01/01 07:52:00;;;;;;;12.35;7.45;;;9.60;99.90;;;;;;5028074;28;20419;-54
2022/01/01 07:54:26;;;;;;;12.70;6.00;;;9.70;99.90;;;;;;5029160;28;20830;-53
2022/01/01 07:56:51;;;;;;;14.32;6.95;;;9.80;99.90;;;;;;5029773;28;20876;-54
2022/01/01 07:59:17;;;;;;;11.93;5.80;;;10.00;99.90;;;;;;5031762;28;20399;-55
2022/01/01 08:01:43;;;;;;;12.60;5.40;;;10.20;99.90;;;;;;5033126;28;20419;-54
2022/01/01 08:04:09;;;;;;;11.63;5.90;;;10.30;99.90;;;;;;5031843;28;20418;-54
2022/01/01 08:06:35;;;;;;;12.60;6.10;;;10.40;99.90;;;;;;5032290;28;20510;-54
2022/01/01 08:09:01;;;;;;;12.13;6.20;;;10.60;99.90;;;;;;5031738;28;20382;-54
2022/01/01 08:11:26;;;;;;;10.03;6.03;;;10.70;99.90;;;;;;5032921;28;20394;-54
2022/01/01 08:13:53;;;;;;;12.93;7.07;;;10.70;99.90;;;;;;5024300;28;20846;-54
2022/01/01 08:16:19;;;;;;;11.80;6.60;;;10.80;99.90;;;;;;5011968;28;20389;-54
2022/01/01 08:18:45;;;;;;;11.30;6.22;;;10.90;99.90;;;;;;5012621;28;20407;-56
2022/01/01 08:21:11;;;;;;;12.82;6.82;;;11.00;99.90;;;;;;5011401;28;20919;-54
2022/01/01 08:23:36;;;;;;;14.07;7.80;;;11.10;99.90;;;;;;5012629;28;20424;-54
2022/01/01 08:26:02;;;;;;;12.82;6.82;;;11.10;99.90;;;;;;5011765;28;20380;-54
2022/01/01 08:28:28;;;;;;;12.43;7.05;;;11.20;99.90;;;;;;5012632;28;20790;-51
2022/01/01 08:30:54;;;;;;;11.50;7.05;;;11.30;99.90;;;;;;5012162;28;20412;-51
2022/01/01 08:33:21;;;;;;;13.13;7.38;;;11.50;99.90;;;;;;5011995;28;20475;-51
2022/01/01 08:35:46;;;;;;;12.40;6.97;;;11.80;99.90;;;;;;5012221;28;20400;-51
2022/01/01 08:38:13;;;;;;;13.80;7.70;;;12.00;99.90;;;;;;5011394;28;20380;-51
2022/01/01 08:40:39;;;;;;;11.93;6.18;;;12.20;99.90;;;;;;5012106;28;20739;-49
2022/01/01 08:43:05;;;;;;;11.45;5.80;;;12.40;99.90;;;;;;5011351;28;20384;-49
2022/01/01 08:45:31;;;;;;;9.37;5.10;;;12.40;99.90;;;;;;5011966;28;20888;-48
2022/01/01 08:47:57;;;;;;;10.43;5.80;;;12.40;99.90;;;;;;5012753;28;20458;-52
2022/01/01 08:50:22;;;;;;;11.90;6.30;;;12.40;99.90;;;;;;5011390;28;20395;-48
2022/01/01 08:52:48;;;;;;;12.82;6.32;;;12.50;99.90;;;;;;5012006;28;20387;-49
2022/01/01 08:55:14;;;;;;;10.98;6.85;;;12.50;99.90;;;;;;5011247;28;20810;-49
2022/01/01 08:57:39;;;;;;;13.30;6.93;;;12.50;99.90;;;;;;5012241;28;20420;-49
2022/01/01 09:00:09;;;;;;;12.90;7.57;;;12.70;99.90;;;;;;5010238;28;20934;-51
2022/01/01 09:02:35;;;;;;;12.38;6.95;;;13.00;99.90;;;;;;5010529;28;20415;-49
2022/01/01 09:05:01;;;;;;;12.23;6.65;;;13.20;99.90;;;;;;5011016;28;20480;-49
2022/01/01 09:07:30;;;;;;;11.75;6.35;;;13.50;99.90;;;;;;5011038;28;20392;-51
2022/01/01 09:10:00;;;;;;;11.27;6.32;;;13.90;99.90;;;;;;5012288;28;20388;-51
2022/01/01 09:12:29;;;;;;;11.05;6.00;;;14.10;99.90;;;;;;5011473;28;20756;-53
2022/01/01 09:14:55;;;;;;;11.70;6.30;;;14.30;99.90;;;;;;5028313;28;20423;-54
2022/01/01 09:17:21;;;;;;;13.30;6.77;;;14.40;99.90;;;;;;5030664;28;20379;-54
2022/01/01 09:19:48;;;;;;;10.85;5.45;;;14.50;99.90;;;;;;5031206;28;20923;-54
2022/01/01 09:22:13;;;;;;;9.93;5.38;;;14.60;99.90;;;;;;5030218;28;20557;-54
2022/01/01 09:24:39;;;;;;;11.93;5.20;;;;;;;;;;5030954;28;20466;-54
2022/01/01 09:27:06;;;;;;;9.70;5.93;;;16.40;99.90;;;;;;5030226;28;20418;-51
2022/01/01 09:29:32;;;;;;;10.00;7.05;;;;;;;;;;5031113;28;20450;-51
2022/01/01 09:31:58;;;;;;;10.60;9.50;;;21.20;99.90;;;;;;5031111;28;20760;-52
2022/01/01 09:34:23;;;;;;;9.27;6.60;;;21.40;99.90;;;;;;5030723;28;20391;-52
2022/01/01 09:36:50;;;;;;;11.87;9.07;;;21.30;99.00;;;;;;5030878;28;20438;-52
2022/01/01 09:39:16;;;;;;;8.60;4.50;;;21.50;97.30;;;;;;5029958;28;20395;-53
2022/01/01 09:41:43;;;;;;;9.20;4.80;;;20.80;97.50;;;;;;5031002;28;20415;-54
2022/01/01 09:44:16;;;;;;;7.80;4.00;;;20.90;97.40;;;;;;5030022;28;20394;-54
2022/01/01 09:46:44;;;;;;;9.27;4.72;;;21.00;96.90;;;;;;5030483;28;20395;-54
2022/01/01 09:49:12;;;;;;;10.45;8.15;;;21.30;96.90;;;;;;5028858;28;20840;-54
2022/01/01 09:51:39;;;;;;;8.68;5.45;;;21.80;96.10;;;;;;5030484;28;20395;-54
2022/01/01 09:54:05;;;;;;;9.23;4.90;;;22.10;94.80;;;;;;5029742;28;20682;-54
2022/01/01 09:56:31;;;;;;;9.63;4.20;;;22.70;93.90;;;;;;5029277;28;20410;-52
2022/01/01 09:58:56;;;;;;;10.20;7.07;;;23.20;93.30;;;;;;5030258;28;20401;-52
2022/01/01 10:01:22;;;;;;;9.97;7.83;;;24.10;91.40;;;;;;5029684;28;20407;-52
2022/01/01 10:03:51;;;;;;;9.63;6.13;;;23.70;91.70;;;;;;5029002;28;20433;-52
2022/01/01 10:06:19;;;;;;;9.07;4.60;;;23.30;91.50;;;;;;5029703;28;20860;-52
2022/01/01 10:08:47;;;;;;;8.13;3.60;;;23.40;91.70;;;;;;5030066;28;20391;-52
2022/01/01 10:11:18;;;;;;;6.90;3.25;;;23.80;91.40;;;;;;5029297;28;20828;-52
2022/01/01 10:13:47;;;;;;;7.10;3.50;;;23.40;90.00;;;;;;5022985;28;20449;-52
2022/01/01 10:16:14;;;;;;;10.50;8.90;;;22.20;92.00;;;;;;5009736;28;20890;-52
2022/01/01 10:18:45;;;;;;;7.68;3.38;;;21.70;93.10;;;;;;5010441;28;20388;-52
2022/01/01 10:21:15;;;;;;;7.90;3.20;;;21.00;93.10;;;;;;5008980;28;20841;-52
2022/01/01 10:23:42;;;;;;;7.40;3.50;;;20.70;94.70;;;;;;5010251;28;20381;-52
2022/01/01 10:29:29;;;;;;;7.15;3.30;;;21.60;93.90;;;;;;5009386;28;20400;-52
2022/01/01 10:32:03;;;;;;;7.78;3.80;;;21.30;94.90;;;;;;5009859;28;20424;-52
2022/01/01 10:34:30;;;;;;;12.60;11.50;;;21.00;94.40;;;;;;5009971;28;20759;-53
2022/01/01 10:36:56;;;;;;;10.77;9.70;;;19.90;96.30;;;;;;5010150;28;20397;-52
2022/01/01 10:39:22;;;;;;;11.43;10.32;;;20.50;96.00;;;;;;5009032;28;20460;-52
2022/01/01 10:42:03;;;;;;;11.27;10.38;;;21.00;94.80;;;;;;5010140;28;20381;-52
2022/01/01 10:44:34;;;;;;;11.20;10.20;;;20.90;95.50;;;;;;5010009;28;20416;-52
2022/01/01 10:47:28;;;;;;;10.75;9.85;;;20.80;95.80;;;;;;5009864;28;20504;-52
2022/01/01 10:50:36;;;;;;;11.25;10.25;;;21.50;94.00;;;;;;5010068;28;20404;-52
2022/01/01 10:52:45;;;;;;;10.10;9.20;;;21.80;94.00;;;;;;5004292;28;20397;-52
2022/01/01 10:55:13;;;;;;;9.18;6.30;;;21.80;94.50;;;;;;5008951;28;20380;-52
2022/01/01 10:57:41;;;;;;;7.95;5.95;;;21.80;94.50;;;;;;5009838;28;20543;-52
2022/01/01 11:00:18;;;;;;;8.77;7.18;;;22.20;94.80;;;;;;5009187;28;20416;-52
2022/01/01 11:02:47;;;;;;;11.48;10.27;;;21.60;93.90;;;;;;5009665;28;20532;-52
2022/01/01 11:05:13;;;;;;;9.95;8.95;;;21.40;94.10;;;;;;5009090;28;20435;-52
2022/01/01 11:07:49;;;;;;;9.88;8.98;;;21.60;94.10;;;;;;5009673;28;20384;-52
2022/01/01 11:10:15;;;;;;;9.35;8.45;;;21.70;94.00;;;;;;5008783;28;20469;-52
2022/01/01 11:12:41;;;;;;;10.88;9.77;;;21.20;94.30;;;;;;5009854;28;20516;-52
2022/01/01 11:15:08;;;;;;;12.23;10.95;;;20.80;95.00;;;;;;5027030;28;20958;-52
2022/01/01 11:17:36;;;;;;;11.45;10.25;;;21.00;95.80;;;;;;5028562;28;20395;-52
2022/01/01 11:20:03;;;;;;;11.30;10.20;;;21.20;94.10;;;;;;5028901;28;20410;-52
2022/01/01 11:22:29;;;;;;;10.93;9.82;;;21.20;95.30;;;;;;5029331;28;20449;-52
2022/01/01 11:24:55;;;;;;;11.83;10.63;;;21.00;94.50;;;;;;5028991;28;20387;-52
2022/01/01 11:27:21;;;;;;;12.27;11.07;;;20.50;95.20;;;;;;5028318;28;20371;-52
2022/01/01 11:29:51;;;;;;;12.60;11.30;;;20.60;95.10;;;;;;5029702;28;20449;-52
2022/01/01 11:32:44;;;;;;;14.27;11.33;;;20.60;95.10;;;;;;5031029;28;20760;-52
2022/01/01 11:35:17;;;;;;;14.57;12.70;;;20.40;94.50;;;;;;5029110;28;20535;-52
2022/01/01 11:38:00;;;;;;;15.45;13.05;;;19.90;96.60;;;;;;5033570;28;20382;-53
2022/01/01 11:40:31;;;;;;;13.30;11.85;;;19.60;97.20;;;;;;5032563;28;20406;-52
2022/01/01 11:42:56;;;;;;;13.50;11.27;;;19.10;97.30;;;;;;5033232;28;20505;-52
2022/01/01 11:45:45;;;;;;;14.50;11.23;;;18.80;98.00;;;;;;5032488;28;20486;-53
2022/01/01 11:48:33;;;;;;;11.70;10.00;;;18.60;97.70;;;;;;5031969;28;20397;-52
2022/01/01 11:51:22;;;;;;;10.73;9.15;;;18.40;97.90;;;;;;5032735;28;20774;-52
2022/01/01 11:54:06;;;;;;;14.60;11.30;;;18.10;98.20;;;;;;5032916;28;20558;-52
2022/01/01 11:56:50;;;;;;;14.32;10.95;;;17.80;98.20;;;;;;5032692;28;20479;-52
2022/01/01 11:59:23;;;;;;;13.25;10.50;;;17.80;98.40;;;;;;5031593;28;20501;-52
2022/01/01 12:01:51;;;;;;;13.32;9.77;;;17.60;98.30;;;;;;5033442;28;20472;-53
2022/01/01 12:04:42;;;;;;;12.27;8.73;;;17.50;98.90;;;;;;5032320;28;20832;-53
2022/01/01 12:07:16;;;;;;;11.95;9.48;;;17.60;99.90;;;;;;5032457;28;20673;-52
2022/01/01 12:10:04;;;;;;;11.85;9.00;;;17.50;99.30;;;;;;5032217;28;20873;-52
2022/01/01 12:12:50;;;;;;;11.60;9.03;;;17.40;99.40;;;;;;5033335;28;20476;-52
2022/01/01 12:15:27;;;;;;;11.90;7.80;;;17.30;99.60;;;;;;5013398;28;20435;-52
2022/01/01 12:17:55;;;;;;;12.30;8.50;;;17.10;99.40;;;;;;5012662;28;20396;-52
2022/01/01 12:20:45;;;;;;;12.07;7.88;;;16.90;99.90;;;;;;5011878;28;20512;-53
2022/01/01 12:23:22;;;;;;;16.83;9.65;;;16.70;99.90;;;;;;5011981;28;20392;-52
2022/01/01 12:25:51;;;;;;;12.82;8.05;;;16.60;99.90;;;;;;5012791;28;20380;-52
2022/01/01 12:28:31;;;;;;;11.95;7.55;;;16.60;99.90;;;;;;5011495;28;20400;-52
2022/01/01 12:31:10;;;;;;;15.02;8.05;;;16.50;99.90;;;;;;5012477;28;20436;-52
2022/01/01 12:33:42;;;;;;;11.93;7.28;;;16.60;99.90;;;;;;5010878;28;20471;-52
2022/01/01 12:36:15;;;;;;;17.00;8.17;;;16.60;99.90;;;;;;5011398;28;20381;-52
2022/01/01 12:38:51;;;;;;;11.93;7.45;;;16.70;99.90;;;;;;5012277;28;20381;-52
2022/01/01 12:41:39;;;;;;;11.65;7.20;;;16.70;99.90;;;;;;5011614;28;20439;-53
2022/01/01 12:44:16;;;;;;;11.70;7.25;;;16.80;99.90;;;;;;5010281;28;20400;-52